Time;durP1;ratioP1;P1;durP2;ratioP2;P2;SDS_P1;SDS_P2;PMS_P1;PMS_P2;Temp;Humidity;BMP_temperature;BMP_pressure;BME280_temperature;BME280_humidity;BME280_pressure;Samples;Min_cycle;Max_cycle;Signal;HPM_P1;HPM_P2
2024/02/20 00:01:46;;;;;;;9.70;6.70;;;;;;;;;;5073489;28;20538;-68
2024/02/20 00:04:17;;;;;;;9.20;7.07;;;;;;;;;;5073697;28;20550;-68
2024/02/20 00:06:44;;;;;;;6.97;6.27;;;;;;;;;;5073901;28;20843;-68
2024/02/20 00:09:11;;;;;;;10.90;6.93;;;;;;;;;;5073582;28;20536;-68
2024/02/20 00:11:39;;;;;;;9.30;5.90;;;;;;;;;;5073469;28;20526;-68
2024/02/20 00:14:06;;;;;;;12.33;8.03;;;;;;;;;;5072567;28;21004;-68
2024/02/20 00:16:33;;;;;;;11.73;6.83;;;;;;;;;;5073347;28;20447;-68
2024/02/20 00:19:00;;;;;;;12.10;6.83;;;;;;;;;;5073205;28;20443;-68
2024/02/20 00:21:27;;;;;;;9.17;8.27;;;;;;;;;;5073381;28;20530;-68
2024/02/20 00:23:54;;;;;;;9.83;7.80;;;;;;;;;;5073350;28;20886;-68
2024/02/20 00:26:21;;;;;;;9.90;7.93;;;;;;;;;;5073240;28;20443;-68
2024/02/20 00:28:50;;;;;;;9.90;7.60;;;;;;;;;;5073086;28;20445;-68
2024/02/20 00:31:17;;;;;;;9.30;7.47;;;;;;;;;;5073374;28;20520;-68
2024/02/20 00:33:43;;;;;;;8.00;7.20;;;;;;;;;;5073185;28;20475;-68
2024/02/20 00:36:10;;;;;;;15.27;8.00;;;;;;;;;;5073040;28;20479;-68
2024/02/20 00:38:37;;;;;;;7.90;6.90;;;;;;;;;;5073186;28;20443;-68
2024/02/20 00:41:04;;;;;;;8.90;7.13;;;;;;;;;;5073080;28;20448;-68
2024/02/20 00:43:31;;;;;;;8.40;7.50;;;;;;;;;;5072876;28;20530;-68
2024/02/20 00:46:01;;;;;;;8.10;7.40;;;;;;;;;;5073160;28;20534;-68
2024/02/20 00:48:28;;;;;;;12.33;8.00;;;;;;;;;;5073050;28;20443;-68
2024/02/20 00:50:55;;;;;;;10.63;7.90;;;;;;;;;;5073133;28;20443;-68
2024/02/20 00:53:22;;;;;;;11.00;7.90;;;;;;;;;;5072790;28;20597;-68
2024/02/20 00:55:50;;;;;;;10.53;6.83;;;;;;;;;;5072812;28;20479;-68
2024/02/20 00:58:16;;;;;;;9.60;7.53;;;;;;;;;;5073028;28;20850;-68
2024/02/20 01:00:43;;;;;;;9.53;6.80;;;;;;;;;;5073228;28;20542;-68
2024/02/20 01:03:12;;;;;;;8.10;6.20;;;;;;;;;;5072997;28;20530;-68
2024/02/20 01:05:38;;;;;;;7.73;6.50;;;;;;;;;;5072780;28;20780;-68
2024/02/20 01:08:06;;;;;;;11.20;7.10;;;;;;;;;;5072775;28;20530;-68
2024/02/20 01:10:33;;;;;;;11.70;7.10;;;;;;;;;;5072824;28;20447;-68
2024/02/20 01:13:00;;;;;;;10.57;7.07;;;;;;;;;;5072866;28;20458;-68
2024/02/20 01:15:27;;;;;;;10.50;6.83;;;;;;;;;;5072765;28;20515;-68
2024/02/20 01:17:54;;;;;;;9.50;6.60;;;;;;;;;;5072735;28;20450;-68
2024/02/20 01:20:22;;;;;;;7.80;6.57;;;;;;;;;;5072654;28;20530;-68
2024/02/20 01:22:50;;;;;;;8.40;7.13;;;;;;;;;;5072556;28;20475;-68
2024/02/20 01:25:17;;;;;;;9.07;6.73;;;;;;;;;;5075734;28;20469;-68
2024/02/20 01:27:44;;;;;;;10.10;6.70;;;;;;;;;;5076655;28;20538;-68
2024/02/20 01:30:12;;;;;;;8.87;7.50;;;;;;;;;;5076646;28;20877;-68
2024/02/20 01:32:39;;;;;;;10.37;7.80;;;;;;;;;;5076544;28;20449;-68
2024/02/20 01:35:06;;;;;;;8.30;7.50;;;;;;;;;;5076335;28;20589;-68
2024/02/20 01:37:35;;;;;;;7.53;6.37;;;;;;;;;;5076259;28;20478;-68
2024/02/20 01:40:02;;;;;;;8.17;6.63;;;;;;;;;;5076303;28;20475;-68
2024/02/20 01:42:29;;;;;;;7.20;6.50;;;;;;;;;;5076414;28;20522;-68
2024/02/20 01:44:56;;;;;;;8.37;7.57;;;;;;;;;;5076296;28;20530;-68
2024/02/20 01:47:23;;;;;;;7.47;6.77;;;;;;;;;;5076191;28;20439;-68
2024/02/20 01:49:50;;;;;;;7.10;6.30;;;;;;;;;;5076057;28;20530;-68
2024/02/20 01:52:17;;;;;;;6.33;5.73;;;;;;;;;;5076074;28;20473;-68
2024/02/20 01:54:45;;;;;;;6.50;5.83;;;;;;;;;;5076080;28;20494;-68
2024/02/20 01:57:12;;;;;;;7.57;6.73;;;;;;;;;;5076021;28;20543;-68
2024/02/20 01:59:39;;;;;;;7.60;5.97;;;;;;;;;;5075981;28;20479;-68
2024/02/20 02:02:07;;;;;;;6.97;5.60;;;;;;;;;;5075900;28;20537;-68
2024/02/20 02:04:34;;;;;;;7.60;5.50;;;;;;;;;;5075716;28;20458;-68
2024/02/20 02:07:01;;;;;;;7.63;5.83;;;;;;;;;;5076008;28;20443;-68
2024/02/20 02:09:28;;;;;;;7.13;6.43;;;;;;;;;;5075876;28;20535;-68
2024/02/20 02:11:56;;;;;;;10.53;5.23;;;;;;;;;;5075644;28;20942;-68
2024/02/20 02:14:23;;;;;;;9.17;5.80;;;;;;;;;;5075674;28;20982;-68
2024/02/20 02:16:50;;;;;;;9.20;6.50;;;;;;;;;;5075645;28;20453;-68
2024/02/20 02:19:17;;;;;;;10.47;5.57;;;;;;;;;;5075585;28;20882;-68
2024/02/20 02:21:45;;;;;;;5.27;4.50;;;;;;;;;;5075451;28;21034;-68
2024/02/20 02:24:12;;;;;;;7.97;6.07;;;;;;;;;;5075749;28;20454;-68
2024/02/20 02:26:40;;;;;;;7.63;5.07;;;;;;;;;;5075476;28;20443;-68
2024/02/20 02:29:07;;;;;;;6.17;5.50;;;;;;;;;;5075514;28;20538;-68
2024/02/20 02:31:34;;;;;;;6.27;5.50;;;;;;;;;;5075229;28;20550;-68
2024/02/20 02:34:01;;;;;;;5.07;4.60;;;;;;;;;;5075449;28;20534;-68
2024/02/20 02:36:28;;;;;;;6.27;5.47;;;;;;;;;;5074684;28;20547;-68
2024/02/20 02:38:56;;;;;;;5.93;5.27;;;;;;;;;;5075144;28;20554;-68
2024/02/20 02:41:24;;;;;;;8.13;5.10;;;;;;;;;;5075302;28;20447;-68
2024/02/20 02:43:53;;;;;;;8.50;5.90;;;;;;;;;;5075102;28;20447;-68
2024/02/20 02:46:20;;;;;;;5.97;4.97;;;;;;;;;;5075038;28;20479;-68
2024/02/20 02:48:48;;;;;;;7.63;4.97;;;;;;;;;;5075277;28;21008;-68
2024/02/20 02:51:15;;;;;;;7.20;5.23;;;;;;;;;;5075234;28;20454;-68
2024/02/20 02:53:42;;;;;;;10.07;5.27;;;;;;;;;;5075045;28;20878;-68
2024/02/20 02:56:10;;;;;;;9.57;4.63;;;;;;;;;;5074865;28;20486;-68
2024/02/20 02:58:37;;;;;;;6.10;5.00;;;;;;;;;;5074830;28;20440;-69
2024/02/20 03:01:05;;;;;;;10.83;5.20;;;;;;;;;;5074764;28;20534;-68
2024/02/20 03:03:32;;;;;;;7.60;4.70;;;;;;;;;;5074872;28;20970;-68
2024/02/20 03:06:00;;;;;;;8.30;5.90;;;;;;;;;;5074841;28;20447;-68
2024/02/20 03:08:27;;;;;;;9.37;5.93;;;;;;;;;;5074758;28;20486;-68
2024/02/20 03:10:54;;;;;;;6.97;5.63;;;;;;;;;;5074591;28;20534;-68
2024/02/20 03:13:22;;;;;;;4.83;4.40;;;;;;;;;;5074480;28;20887;-68
2024/02/20 03:15:49;;;;;;;6.17;4.77;;;;;;;;;;5074577;28;20838;-68
2024/02/20 03:18:17;;;;;;;8.53;4.80;;;;;;;;;;5074594;28;20505;-68
2024/02/20 03:20:44;;;;;;;8.27;5.33;;;;;;;;;;5074345;28;20939;-68
2024/02/20 03:23:11;;;;;;;6.87;4.80;;;;;;;;;;5074432;28;20478;-68
2024/02/20 03:25:39;;;;;;;6.40;5.53;;;;;;;;;;5074331;28;20852;-68
2024/02/20 03:28:07;;;;;;;7.17;4.37;;;;;;;;;;5074194;28;20443;-68
2024/02/20 03:30:33;;;;;;;5.93;4.73;;;;;;;;;;5074315;28;20443;-68
2024/02/20 03:33:00;;;;;;;4.47;4.07;;;;;;;;;;5074260;28;20874;-68
2024/02/20 03:35:29;;;;;;;8.03;4.27;;;;;;;;;;5074088;28;20485;-68
2024/02/20 03:37:55;;;;;;;5.00;4.37;;;;;;;;;;5074065;28;20538;-68
2024/02/20 03:40:22;;;;;;;6.07;3.60;;;;;;;;;;5073732;28;20474;-68
2024/02/20 03:42:49;;;;;;;8.93;5.40;;;;;;;;;;5073879;28;20443;-68
2024/02/20 03:45:16;;;;;;;5.57;3.83;;;;;;;;;;5074165;28;20906;-68
2024/02/20 03:47:43;;;;;;;4.30;3.80;;;;;;;;;;5073945;28;20534;-68
2024/02/20 03:50:10;;;;;;;8.27;4.30;;;;;;;;;;5073843;28;20439;-68
2024/02/20 03:52:38;;;;;;;5.63;3.73;;;;;;;;;;5073792;28;20509;-68
2024/02/20 03:55:08;;;;;;;5.37;3.57;;;;;;;;;;5073538;28;20554;-68
2024/02/20 03:57:35;;;;;;;6.30;4.97;;;;;;;;;;5073538;28;20456;-68
2024/02/20 04:00:11;;;;;;;5.57;4.27;;;;;;;;;;5073701;28;20440;-68
2024/02/20 04:02:40;;;;;;;6.53;3.43;;;;;;;;;;5073682;28;20443;-68
2024/02/20 04:05:07;;;;;;;4.27;3.87;;;;;;;;;;5073811;28;20871;-68
2024/02/20 04:07:35;;;;;;;5.00;3.53;;;;;;;;;;5073392;28;20443;-68
2024/02/20 04:10:04;;;;;;;4.53;4.10;;;;;;;;;;5073601;28;20448;-68
2024/02/20 04:12:31;;;;;;;3.90;2.90;;;;;;;;;;5073522;28;20455;-68
2024/02/20 04:14:58;;;;;;;3.67;3.20;;;;;;;;;;5073280;28;20830;-68
2024/02/20 04:17:25;;;;;;;3.50;3.20;;;;;;;;;;5073334;28;20523;-68
2024/02/20 04:19:52;;;;;;;3.50;3.20;;;;;;;;;;5073323;28;20443;-68
2024/02/20 04:22:18;;;;;;;8.23;3.50;;;;;;;;;;5073245;28;20531;-68
2024/02/20 04:24:45;;;;;;;4.47;3.33;;;;;;;;;;5073379;28;20888;-68
2024/02/20 04:27:14;;;;;;;5.77;3.40;;;;;;;;;;5073266;28;20481;-68
2024/02/20 04:29:40;;;;;;;3.43;2.37;;;;;;;;;;5073173;28;20443;-68
2024/02/20 04:32:07;;;;;;;2.90;2.40;;;;;;;;;;5073348;28;20539;-69
2024/02/20 04:34:34;;;;;;;2.73;2.27;;;;;;;;;;5072826;28;20558;-68
2024/02/20 04:37:01;;;;;;;1.80;1.70;;;;;;;;;;5073270;28;20444;-68
2024/02/20 04:39:28;;;;;;;3.13;2.03;;;;;;;;;;5072981;28;20467;-68
2024/02/20 04:41:55;;;;;;;1.90;1.80;;;;;;;;;;5073028;28;20534;-68
2024/02/20 04:44:23;;;;;;;1.73;1.63;;;;;;;;;;5073042;28;20538;-68
2024/02/20 04:46:50;;;;;;;4.07;2.83;;;;;;;;;;5072960;28;20469;-68
2024/02/20 04:49:17;;;;;;;5.60;2.40;;;;;;;;;;5073351;28;20535;-68
2024/02/20 04:51:44;;;;;;;2.23;1.77;;;;;;;;;;5073311;28;20538;-68
2024/02/20 04:54:11;;;;;;;2.83;2.63;;;;;;;;;;5073347;28;20526;-68
2024/02/20 04:56:38;;;;;;;3.80;1.70;;;;;;;;;;5073023;28;20562;-68
2024/02/20 04:59:05;;;;;;;1.80;1.70;;;;;;;;;;5072361;28;20534;-68
2024/02/20 05:01:33;;;;;;;1.87;1.70;;;;;;;;;;5072857;28;20452;-68
2024/02/20 05:04:00;;;;;;;1.70;1.53;;;;;;;;;;5072675;28;20451;-68
2024/02/20 05:06:27;;;;;;;1.97;1.87;;;;;;;;;;5072924;28;21025;-68
2024/02/20 05:08:54;;;;;;;3.00;1.70;;;;;;;;;;5072874;28;20538;-68
2024/02/20 05:11:21;;;;;;;1.93;1.73;;;;;;;;;;5072778;28;20451;-68
2024/02/20 05:13:48;;;;;;;3.23;1.73;;;;;;;;;;5072770;28;20440;-68
2024/02/20 05:16:15;;;;;;;3.37;1.53;;;;;;;;;;5072354;28;20553;-68
2024/02/20 05:18:43;;;;;;;4.93;1.87;;;;;;;;;;5072890;28;20531;-68
2024/02/20 05:21:10;;;;;;;2.07;1.87;;;;;;;;;;5072973;28;20445;-68
2024/02/20 05:23:37;;;;;;;2.53;1.83;;;;;;;;;;5072695;28;20528;-68
2024/02/20 05:26:04;;;;;;;2.50;1.97;;;;;;;;;;5072427;28;20943;-68
2024/02/20 05:28:31;;;;;;;1.77;1.63;;;;;;;;;;5072534;28;20875;-68
2024/02/20 05:30:57;;;;;;;2.50;1.73;;;;;;;;;;5072413;28;20531;-68
2024/02/20 05:33:24;;;;;;;1.50;1.40;;;;;;;;;;5072653;28;20534;-68
2024/02/20 05:35:53;;;;;;;1.90;1.80;;;;;;;;;;5072437;28;20886;-68
2024/02/20 05:38:19;;;;;;;2.37;2.17;;;;;;;;;;5072531;28;20535;-68
2024/02/20 05:40:48;;;;;;;2.50;1.90;;;;;;;;;;5072423;28;20530;-68
2024/02/20 05:43:15;;;;;;;3.80;2.83;;;;;;;;;;5072332;28;20439;-68
2024/02/20 05:45:42;;;;;;;3.37;1.73;;;;;;;;;;5072220;28;20477;-68
2024/02/20 05:48:12;;;;;;;1.30;1.10;;;;;;;;;;5072216;28;20443;-68
2024/02/20 05:50:39;;;;;;;2.60;1.33;;;;;;;;;;5072586;28;20446;-68
2024/02/20 05:53:09;;;;;;;1.30;1.20;;;;;;;;;;5072376;28;20477;-68
2024/02/20 05:55:36;;;;;;;2.30;1.10;;;;;;;;;;5072240;28;20471;-68
2024/02/20 05:58:03;;;;;;;5.73;3.23;;;;;;;;;;5072147;28;20534;-68
2024/02/20 06:00:30;;;;;;;2.30;1.50;;;;;;;;;;5072425;28;20520;-68
2024/02/20 06:02:57;;;;;;;3.83;1.87;;;;;;;;;;5072206;28;20538;-68
2024/02/20 06:05:24;;;;;;;2.70;1.47;;;;;;;;;;5071946;28;21034;-68
2024/02/20 06:07:52;;;;;;;2.13;1.30;;;;;;;;;;5072214;28;20475;-68
2024/02/20 06:10:20;;;;;;;2.80;1.50;;;;;;;;;;5072067;28;20508;-68
2024/02/20 06:12:47;;;;;;;1.37;1.27;;;;;;;;;;5075481;28;20522;-68
2024/02/20 06:15:14;;;;;;;1.67;1.20;;;;;;;;;;5075576;28;20912;-68
2024/02/20 06:17:41;;;;;;;1.20;1.10;;;;;;;;;;5075630;28;20453;-68
2024/02/20 06:20:09;;;;;;;2.27;1.47;;;;;;;;;;5075607;28;20859;-68
2024/02/20 06:22:36;;;;;;;1.87;1.20;;;;;;;;;;5075404;28;20535;-68
2024/02/20 06:25:05;;;;;;;3.10;1.40;;;;;;;;;;5075364;28;20997;-68
2024/02/20 06:27:33;;;;;;;4.47;1.30;;;;;;;;;;5075516;28;20814;-68
2024/02/20 06:30:00;;;;;;;1.53;1.10;;;;;;;;;;5075375;28;20558;-68
2024/02/20 06:32:27;;;;;;;1.77;0.90;;;;;;;;;;5075350;28;20443;-69
2024/02/20 06:34:54;;;;;;;1.10;0.90;;;;;;;;;;5075253;28;20554;-68
2024/02/20 06:37:21;;;;;;;1.83;1.70;;;;;;;;;;5075042;28;20514;-68
2024/02/20 06:39:48;;;;;;;1.83;1.20;;;;;;;;;;5075006;28;20818;-68
2024/02/20 06:42:14;;;;;;;1.53;1.43;;;;;;;;;;5075251;28;20438;-69
2024/02/20 06:44:43;;;;;;;1.20;1.00;;;;;;;;;;5075035;28;20447;-68
2024/02/20 06:47:10;;;;;;;1.33;1.10;;;;;;;;;;5074966;28;20927;-68
2024/02/20 06:49:37;;;;;;;5.53;1.30;;;;;;;;;;5074905;28;20447;-68
2024/02/20 06:52:04;;;;;;;1.20;1.10;;;;;;;;;;5074778;28;20534;-68
2024/02/20 06:54:31;;;;;;;2.47;1.50;;;;;;;;;;5075111;28;20526;-68
2024/02/20 06:56:58;;;;;;;4.33;1.40;;;;;;;;;;5074789;28;20475;-69
2024/02/20 06:59:25;;;;;;;2.37;1.23;;;;;;;;;;5074892;28;20451;-68
2024/02/20 07:01:53;;;;;;;1.20;1.10;;;;;;;;;;5074675;28;20538;-69
2024/02/20 07:04:20;;;;;;;1.50;1.10;;;;;;;;;;5074768;28;20538;-68
2024/02/20 07:06:47;;;;;;;0.80;0.80;;;;;;;;;;5074639;28;20530;-69
2024/02/20 07:09:14;;;;;;;3.13;1.20;;;;;;;;;;5074739;28;20526;-69
2024/02/20 07:11:46;;;;;;;1.17;1.07;;;;;;;;;;5074578;28;20958;-69
2024/02/20 07:14:12;;;;;;;1.23;1.13;;;;;;;;;;5074641;28;20439;-69
2024/02/20 07:16:42;;;;;;;1.37;1.27;;;;;;;;;;5074397;28;20562;-69
2024/02/20 07:19:11;;;;;;;1.00;0.90;;;;;;;;;;5074608;28;20439;-68
2024/02/20 07:21:38;;;;;;;2.30;1.37;;;;;;;;;;5074365;28;20456;-68
2024/02/20 07:24:05;;;;;;;1.40;1.00;;;;;;;;;;5074353;28;20876;-69
2024/02/20 07:26:32;;;;;;;2.03;1.00;;;;;;;;;;5074368;28;20538;-68
2024/02/20 07:28:59;;;;;;;1.93;1.20;;;;;;;;;;5074015;28;20534;-69
2024/02/20 07:31:27;;;;;;;1.10;1.00;;;;;;;;;;5073902;28;20447;-68
2024/02/20 07:33:54;;;;;;;1.70;1.30;;;;;;;;;;5074106;28;20444;-68
2024/02/20 07:36:23;;;;;;;1.33;1.07;;;;;;;;;;5074171;28;20565;-68
2024/02/20 07:38:50;;;;;;;2.90;1.10;;;;;;;;;;5074055;28;20827;-68
2024/02/20 07:41:16;;;;;;;2.10;1.90;;;;;;;;;;5074020;28;20534;-69
2024/02/20 07:43:45;;;;;;;2.17;1.87;;;;;;;;;;5073929;28;20802;-68
2024/02/20 07:46:14;;;;;;;2.87;1.60;;;;;;;;;;5073681;28;20447;-68
2024/02/20 07:48:42;;;;;;;1.40;1.10;;;;;;;;;;5074016;28;20534;-68
2024/02/20 07:51:09;;;;;;;2.73;1.07;;;;;;;;;;5074011;28;20799;-68
2024/02/20 07:53:37;;;;;;;3.10;1.47;;;;;;;;;;5073799;28;20443;-68
2024/02/20 07:56:08;;;;;;;1.60;1.50;;;;;;;;;;5073644;28;20467;-68
2024/02/20 07:58:37;;;;;;;1.63;1.53;;;;;;;;;;5073651;28;20450;-68
2024/02/20 08:01:05;;;;;;;1.93;1.53;;;;;;;;;;5073693;28;20487;-68
2024/02/20 08:03:32;;;;;;;1.40;1.30;;;;;;;;;;5073666;28;20443;-68
2024/02/20 08:05:58;;;;;;;2.50;1.60;;;;;;;;;;5073460;28;20541;-68
2024/02/20 08:08:25;;;;;;;2.20;1.60;;;;;;;;;;5073345;28;20440;-72
2024/02/20 08:10:55;;;;;;;2.80;1.80;;;;;;;;;;5073426;28;20894;-67
2024/02/20 08:13:24;;;;;;;2.33;1.60;;;;;;;;;;5073246;28;20447;-67
2024/02/20 08:15:50;;;;;;;1.30;1.20;;;;;;;;;;5073412;28;20444;-64
2024/02/20 08:18:17;;;;;;;1.77;1.60;;;;;;;;;;5073408;28;20535;-64
2024/02/20 08:20:44;;;;;;;1.67;1.50;;;;;;;;;;5073189;28;20443;-64
2024/02/20 08:23:11;;;;;;;2.33;1.30;;;;;;;;;;5072704;28;20994;-69
2024/02/20 08:25:38;;;;;;;4.70;1.70;;;;;;;;;;5073040;28;20445;-68
2024/02/20 08:28:07;;;;;;;1.50;1.40;;;;;;;;;;5072878;28;20534;-68
2024/02/20 08:30:34;;;;;;;6.13;2.30;;;;;;;;;;5073143;28;21014;-68
2024/02/20 08:33:00;;;;;;;2.27;1.70;;;;;;;;;;5073158;28;20449;-64
2024/02/20 08:35:27;;;;;;;1.67;1.57;;;;;;;;;;5072725;28;20446;-72
2024/02/20 08:37:56;;;;;;;1.70;1.60;;;;;;;;;;5072986;28;20879;-72
2024/02/20 08:40:23;;;;;;;4.13;1.80;;;;;;;;;;5072867;28;20475;-70
2024/02/20 08:42:50;;;;;;;2.80;1.40;;;;;;;;;;5073118;28;20777;-69
2024/02/20 08:45:19;;;;;;;2.90;1.87;;;;;;;;;;5073259;28;20538;-64
2024/02/20 08:47:46;;;;;;;2.70;2.50;;;;;;;;;;5073219;28;20451;-66
2024/02/20 08:50:16;;;;;;;2.40;1.93;;;;;;;;;;5072839;28;20450;-66
2024/02/20 08:52:43;;;;;;;1.50;1.40;;;;;;;;;;5072899;28;20890;-65
2024/02/20 08:55:10;;;;;;;1.90;1.50;;;;;;;;;;5072781;28;20450;-66
2024/02/20 08:57:37;;;;;;;1.73;1.43;;;;;;;;;;5072815;28;20548;-67
2024/02/20 09:00:05;;;;;;;1.30;1.17;;;;;;;;;;5072682;28;21014;-69
2024/02/20 09:02:36;;;;;;;2.83;1.40;;;;;;;;;;5072826;28;20450;-63
2024/02/20 09:05:03;;;;;;;1.70;1.60;;;;;;;;;;5072717;28;20448;-66
2024/02/20 09:07:30;;;;;;;3.17;1.47;;;;;;;;;;5072584;28;20451;-67
2024/02/20 09:09:57;;;;;;;2.80;1.97;;;;;;;;;;5072729;28;20478;-66
2024/02/20 09:12:24;;;;;;;3.10;1.20;;;;;;;;;;5072427;28;20543;-71
2024/02/20 09:14:51;;;;;;;4.50;1.60;;;;;;;;;;5072664;28;20534;-63
2024/02/20 09:17:18;;;;;;;1.30;1.20;;;;;;;;;;5072513;28;20486;-75
2024/02/20 09:19:46;;;;;;;4.27;1.57;;;;;;;;;;5072164;28;20475;-73
2024/02/20 09:22:13;;;;;;;2.03;1.67;;;;;;;;;;5072378;28;20876;-68
2024/02/20 09:24:40;;;;;;;1.50;1.40;;;;;;;;;;5073005;28;20443;-68
2024/02/20 09:27:07;;;;;;;5.33;1.53;;;;;;;;;;5072536;28;20885;-68
2024/02/20 09:29:34;;;;;;;1.90;1.30;;;;;;;;;;5072722;28;20450;-68
2024/02/20 09:32:02;;;;;;;4.03;1.47;;;;;;;;;;5072266;28;20543;-64
2024/02/20 09:34:29;;;;;;;5.97;1.50;;;;;;;;;;5072330;28;20443;-71
2024/02/20 09:36:57;;;;;;;6.80;2.37;;;;;;;;;;5072421;28;20904;-65
2024/02/20 09:39:25;;;;;;;5.60;2.00;;;;;;;;;;5072271;28;20482;-65
2024/02/20 09:41:52;;;;;;;5.20;2.13;;;;;;;;;;5072363;28;20967;-73
2024/02/20 09:44:19;;;;;;;10.10;2.97;;;;;;;;;;5072393;28;20450;-66
2024/02/20 09:46:49;;;;;;;10.53;2.40;;;;;;;;;;5076208;28;20535;-67
2024/02/20 09:49:15;;;;;;;7.67;2.10;;;;;;;;;;5075942;28;20497;-73
2024/02/20 09:51:44;;;;;;;7.03;2.10;;;;;;;;;;5076248;28;20550;-68
2024/02/20 09:54:12;;;;;;;6.77;2.70;;;;;;;;;;5076069;28;20475;-74
2024/02/20 09:56:40;;;;;;;10.00;2.33;;;;;;;;;;5075468;28;20467;-76
2024/02/20 09:59:07;;;;;;;5.20;2.27;;;;;;;;;;5075938;28;20443;-76
2024/02/20 10:01:35;;;;;;;10.10;3.73;;;;;;;;;;5075844;28;20447;-67
2024/02/20 10:04:04;;;;;;;5.70;2.53;;;;;;;;;;5076062;28;20439;-80
2024/02/20 10:06:31;;;;;;;5.63;2.57;;;;;;;;;;5075973;28;20486;-72
2024/02/20 10:08:58;;;;;;;7.50;2.87;;;;;;;;;;5075859;28;20482;-70
2024/02/20 10:11:26;;;;;;;8.00;2.47;;;;;;;;;;5075788;28;20537;-63
2024/02/20 10:13:55;;;;;;;9.03;2.47;;;;;;;;;;5075660;28;20533;-71
2024/02/20 10:16:22;;;;;;;13.20;3.03;;;;;;;;;;5075431;28;20444;-65
2024/02/20 10:18:57;;;;;;;12.00;2.87;;;;;;;;;;5075714;28;20448;-68
2024/02/20 10:21:24;;;;;;;10.43;2.53;;;;;;;;;;5075751;28;20447;-66
2024/02/20 10:24:00;;;;;;;7.13;3.20;;;;;;;;;;5075467;28;20454;-67
2024/02/20 10:26:30;;;;;;;8.57;1.97;;;;;;;;;;5075459;28;20443;-71
2024/02/20 10:28:58;;;;;;;14.23;2.57;;;;;;;;;;5075856;28;20447;-68
2024/02/20 10:31:25;;;;;;;9.80;3.30;;;;;;;;;;5075192;28;20993;-70
2024/02/20 10:33:52;;;;;;;11.03;2.90;;;;;;;;;;5075419;28;20443;-72
2024/02/20 10:36:21;;;;;;;5.23;2.13;;;;;;;;;;5075705;28;20459;-72
2024/02/20 10:38:50;;;;;;;10.67;2.87;;;;;;;;;;5074961;28;20495;-73
2024/02/20 10:41:18;;;;;;;8.20;2.73;;;;;;;;;;5075070;28;20532;-69
2024/02/20 10:43:48;;;;;;;8.63;2.20;;;;;;;;;;5075196;28;20439;-68
2024/02/20 10:46:15;;;;;;;6.33;2.93;;;;;;;;;;5074961;28;20443;-68
2024/02/20 10:48:45;;;;;;;10.40;2.70;;;;;;;;;;5075126;28;20471;-62
2024/02/20 10:51:12;;;;;;;8.23;2.30;;;;;;;;;;5074999;28;20930;-65
2024/02/20 10:53:39;;;;;;;10.77;2.60;;;;;;;;;;5074967;28;20908;-71
2024/02/20 10:56:08;;;;;;;8.60;2.30;;;;;;;;;;5074547;28;20446;-65
2024/02/20 10:58:39;;;;;;;10.13;2.20;;;;;;;;;;5074604;28;20483;-68
2024/02/20 11:01:09;;;;;;;13.47;3.07;;;;;;;;;;5074937;28;20501;-69
2024/02/20 11:03:36;;;;;;;10.30;2.80;;;;;;;;;;5074785;28;20802;-68
2024/02/20 11:06:03;;;;;;;17.27;2.50;;;;;;;;;;5074723;28;20497;-65
2024/02/20 11:08:31;;;;;;;13.53;3.10;;;;;;;;;;5074568;28;20530;-67
2024/02/20 11:10:58;;;;;;;10.50;2.40;;;;;;;;;;5074803;28;20497;-67
2024/02/20 11:13:27;;;;;;;10.37;2.60;;;;;;;;;;5074633;28;20471;-67
2024/02/20 11:15:54;;;;;;;18.90;3.17;;;;;;;;;;5074585;28;20951;-70
2024/02/20 11:18:24;;;;;;;10.80;3.30;;;;;;;;;;5074242;28;20483;-74
2024/02/20 11:21:00;;;;;;;10.00;3.63;;;;;;;;;;5074367;28;20451;-70
2024/02/20 11:23:29;;;;;;;7.10;2.37;;;;;;;;;;5074446;28;20806;-70
2024/02/20 11:26:05;;;;;;;5.73;1.83;;;;;;;;;;5074378;28;20440;-70
2024/02/20 11:28:34;;;;;;;11.20;2.70;;;;;;;;;;5074136;28;20447;-73
2024/02/20 11:31:02;;;;;;;11.57;2.20;;;;;;;;;;5074146;28;20853;-72
2024/02/20 11:33:31;;;;;;;6.87;1.90;;;;;;;;;;5074048;28;20456;-70
2024/02/20 11:35:58;;;;;;;7.23;2.10;;;;;;;;;;5074159;28;20463;-72
2024/02/20 11:38:27;;;;;;;10.10;2.00;;;;;;;;;;5073958;28;20914;-70
2024/02/20 11:40:54;;;;;;;8.20;2.53;;;;;;;;;;5073948;28;20969;-70
2024/02/20 11:43:22;;;;;;;5.83;2.47;;;;;;;;;;5073901;28;20538;-72
2024/02/20 11:45:50;;;;;;;13.63;2.87;;;;;;;;;;5073757;28;20818;-72
2024/02/20 11:48:18;;;;;;;12.00;2.70;;;;;;;;;;5073682;28;20575;-67
2024/02/20 11:50:46;;;;;;;5.90;2.40;;;;;;;;;;5073919;28;20546;-68
2024/02/20 11:53:15;;;;;;;7.50;2.07;;;;;;;;;;5073781;28;20866;-67
2024/02/20 11:55:42;;;;;;;7.20;2.00;;;;;;;;;;5073773;28;20451;-73
2024/02/20 11:58:09;;;;;;;9.27;2.77;;;;;;;;;;5073543;28;20566;-72
2024/02/20 12:00:37;;;;;;;8.80;1.97;;;;;;;;;;5073418;28;20877;-72
2024/02/20 12:03:04;;;;;;;12.63;3.93;;;;;;;;;;5073575;28;20521;-68
2024/02/20 12:05:37;;;;;;;14.67;5.00;;;;;;;;;;5073269;28;20440;-74
2024/02/20 12:08:12;;;;;;;9.10;2.17;;;;;;;;;;5072590;28;20450;-76
2024/02/20 12:10:39;;;;;;;7.50;2.23;;;;;;;;;;5073333;28;20796;-69
2024/02/20 12:13:12;;;;;;;10.27;2.77;;;;;;;;;;5073274;28;20443;-69
2024/02/20 12:15:41;;;;;;;8.57;2.27;;;;;;;;;;5073310;28;20466;-70
2024/02/20 12:18:08;;;;;;;17.10;2.53;;;;;;;;;;5073277;28;20936;-71
2024/02/20 12:20:35;;;;;;;8.73;2.73;;;;;;;;;;5073288;28;20454;-72
2024/02/20 12:23:04;;;;;;;11.17;2.70;;;;;;;;;;5073270;28;20538;-72
2024/02/20 12:25:32;;;;;;;12.63;3.80;;;;;;;;;;5073130;28;20482;-73
2024/02/20 12:27:59;;;;;;;4.10;2.60;;;;;;;;;;5073229;28;20461;-70
2024/02/20 12:30:26;;;;;;;8.00;2.07;;;;;;;;;;5073411;28;20538;-61
2024/02/20 12:32:53;;;;;;;14.43;2.47;;;;;;;;;;5073019;28;20464;-68
2024/02/20 12:35:19;;;;;;;5.47;2.07;;;;;;;;;;5072900;28;20516;-68
2024/02/20 12:37:46;;;;;;;6.67;2.50;;;;;;;;;;5072898;28;20475;-63
2024/02/20 12:40:18;;;;;;;9.17;2.63;;;;;;;;;;5072677;28;20534;-71
2024/02/20 12:42:47;;;;;;;8.63;3.30;;;;;;;;;;5073138;28;20443;-67
2024/02/20 12:45:13;;;;;;;16.60;2.80;;;;;;;;;;5073099;28;20470;-68
2024/02/20 12:47:40;;;;;;;9.10;2.27;;;;;;;;;;5072830;28;20451;-69
2024/02/20 12:50:08;;;;;;;13.30;2.83;;;;;;;;;;5072814;28;20951;-69
2024/02/20 12:52:35;;;;;;;15.33;3.30;;;;;;;;;;5072626;28;20527;-68
2024/02/20 12:55:02;;;;;;;16.50;3.73;;;;;;;;;;5072974;28;20534;-72
2024/02/20 12:57:29;;;;;;;14.30;3.03;;;;;;;;;;5072530;28;20923;-68
2024/02/20 12:59:57;;;;;;;11.27;2.80;;;;;;;;;;5072753;28;20447;-67
2024/02/20 13:02:24;;;;;;;12.20;3.17;;;;;;;;;;5072715;28;20478;-67
2024/02/20 13:04:51;;;;;;;12.40;3.50;;;;;;;;;;5072611;28;20455;-69
2024/02/20 13:07:18;;;;;;;5.33;2.47;;;;;;;;;;5072806;28;20970;-69
2024/02/20 13:09:45;;;;;;;10.57;3.40;;;;;;;;;;5072805;28;20443;-70
2024/02/20 13:12:15;;;;;;;13.43;3.70;;;;;;;;;;5072873;28;20450;-72
2024/02/20 13:14:47;;;;;;;11.90;2.83;;;;;;;;;;5072459;28;20891;-74
2024/02/20 13:17:15;;;;;;;12.40;3.27;;;;;;;;;;5072666;28;20483;-64
2024/02/20 13:19:42;;;;;;;10.30;3.30;;;;;;;;;;5072906;28;20486;-72
2024/02/20 13:22:10;;;;;;;8.60;2.80;;;;;;;;;;5076621;28;20886;-71
2024/02/20 13:24:38;;;;;;;17.67;4.07;;;;;;;;;;5076875;28;20529;-72
2024/02/20 13:27:05;;;;;;;13.40;3.57;;;;;;;;;;5076646;28;20471;-71
2024/02/20 13:29:32;;;;;;;11.73;3.17;;;;;;;;;;5076517;28;20849;-73
2024/02/20 13:31:58;;;;;;;14.50;3.20;;;;;;;;;;5076295;28;20534;-71
2024/02/20 13:34:27;;;;;;;15.73;3.43;;;;;;;;;;5076682;28;20788;-71
2024/02/20 13:36:54;;;;;;;15.90;5.23;;;;;;;;;;5076444;28;20451;-71
2024/02/20 13:39:22;;;;;;;10.87;3.13;;;;;;;;;;5075931;28;20487;-70
2024/02/20 13:41:49;;;;;;;8.43;2.40;;;;;;;;;;5076062;28;20449;-71
2024/02/20 13:44:16;;;;;;;8.20;3.03;;;;;;;;;;5076203;28;20530;-66
2024/02/20 13:46:42;;;;;;;15.27;2.97;;;;;;;;;;5075980;28;20542;-66
2024/02/20 13:49:16;;;;;;;13.13;3.23;;;;;;;;;;5075098;28;20795;-66
2024/02/20 13:51:44;;;;;;;12.70;2.70;;;;;;;;;;5075256;28;21043;-67
2024/02/20 13:54:11;;;;;;;18.03;3.77;;;;;;;;;;5075764;28;20977;-66
2024/02/20 13:56:38;;;;;;;7.43;2.57;;;;;;;;;;5075999;28;20551;-67
2024/02/20 13:59:05;;;;;;;11.97;4.00;;;;;;;;;;5075830;28;20998;-66
2024/02/20 14:01:32;;;;;;;9.93;3.50;;;;;;;;;;5076386;28;20447;-66
2024/02/20 14:03:59;;;;;;;7.80;2.90;;;;;;;;;;5075504;28;20543;-66
2024/02/20 14:06:26;;;;;;;12.53;4.70;;;;;;;;;;5075836;28;20534;-66
2024/02/20 14:08:54;;;;;;;13.90;3.50;;;;;;;;;;5075602;28;20955;-66
2024/02/20 14:11:21;;;;;;;11.93;3.10;;;;;;;;;;5075611;28;20443;-66
2024/02/20 14:13:48;;;;;;;10.17;3.03;;;;;;;;;;5075615;28;20446;-66
2024/02/20 14:16:15;;;;;;;9.13;2.70;;;;;;;;;;5075583;28;20947;-66
2024/02/20 14:18:42;;;;;;;17.03;3.90;;;;;;;;;;5075706;28;21035;-66
2024/02/20 14:21:09;;;;;;;24.07;8.30;;;;;;;;;;5075465;28;20545;-66
2024/02/20 14:23:36;;;;;;;16.30;6.10;;;;;;;;;;5076037;28;20546;-66
2024/02/20 14:26:04;;;;;;;23.07;11.80;;;;;;;;;;5075387;28;20806;-66
2024/02/20 14:28:31;;;;;;;13.77;3.57;;;;;;;;;;5075310;28;20867;-66
2024/02/20 14:30:58;;;;;;;11.60;3.00;;;;;;;;;;5075012;28;20451;-66
2024/02/20 14:33:25;;;;;;;15.00;3.00;;;;;;;;;;5075155;28;20436;-66
2024/02/20 14:35:52;;;;;;;10.73;3.03;;;;;;;;;;5075401;28;20440;-66
2024/02/20 14:38:19;;;;;;;10.00;3.20;;;;;;;;;;5075227;28;20475;-66
2024/02/20 14:40:48;;;;;;;11.07;3.77;;;;;;;;;;5075116;28;20530;-66
2024/02/20 14:43:16;;;;;;;11.37;3.30;;;;;;;;;;5075412;28;20446;-66